Time;durP1;ratioP1;P1;durP2;ratioP2;P2;SDS_P1;SDS_P2;PMS_P1;PMS_P2;Temp;Humidity;BMP_temperature;BMP_pressure;BME280_temperature;BME280_humidity;BME280_pressure;Samples;Min_cycle;Max_cycle;Signal;HPM_P1;HPM_P2
2022/04/15 00:00:21;;;;;;;;;;;;;;;;;;1288345;23;896;-37
2022/04/15 00:00:56;;;;;;;;;;;;;;;;;;1289095;23;931;-38
2022/04/15 00:01:26;;;;;;;;;;;;;;;;;;1288684;23;828;-37
2022/04/15 00:01:57;;;;;;;;;;;;;;;;;;1288657;23;743;-37
2022/04/15 00:02:27;;;;;;;;;;;;;;;;;;1288247;23;905;-37
2022/04/15 00:02:57;;;;;;;;;;;;;;;;;;1288438;23;817;-37
2022/04/15 00:03:30;;;;;;;;;;;;;;;;;;1288956;23;773;-37
2022/04/15 00:04:01;;;;;;;;;;;;;;;;;;1288229;23;928;-37
2022/04/15 00:04:34;;;;;;;;;;;;;;;;;;1288815;23;857;-37
2022/04/15 00:05:29;;;;;;;;;;;;;;;;;;1288621;23;819;-37
2022/04/15 00:05:55;;;;;;;;;;;;;;;;;;1288404;23;1254;-37
2022/04/15 00:06:26;;;;;;;;;;;;;;;;;;1288715;23;833;-37
2022/04/15 00:06:57;;;;;;;;;;;;;;;;;;1288449;23;824;-37
2022/04/15 00:07:30;;;;;;;;;;;;;;;;;;1288998;23;774;-37
2022/04/15 00:08:01;;;;;;;;;;;;;;;;;;1288442;23;1105;-39
2022/04/15 00:08:31;;;;;;;;;;;;;;;;;;1288872;23;888;-37
2022/04/15 00:09:02;;;;;;;;;;;;;;;;;;1288569;23;947;-37
2022/04/15 00:09:35;;;;;;;;;;;;;;;;;;1288749;23;813;-37
2022/04/15 00:10:08;;;;;;;;;;;;;;;;;;1288054;23;901;-37
2022/04/15 00:10:45;;;;;;;;;;;;;;;;;;1288837;23;797;-37
2022/04/15 00:11:15;;;;;;;;;;;;;;;;;;1288519;23;945;-37
2022/04/15 00:11:46;;;;;;;;;;;;;;;;;;1288808;22;1243;-37
2022/04/15 00:12:28;;;;;;;;;;;;;;;;;;1288192;23;924;-37
2022/04/15 00:13:02;;;;;;;;;;;;;;;;;;1288833;23;825;-37
2022/04/15 00:13:33;;;;;;;;;;;;;;;;;;1288744;23;932;-37
2022/04/15 00:14:04;;;;;;;;;;;;;;;;;;1288557;23;774;-39
2022/04/15 00:14:37;;;;;;;;;;;;;;;;;;1288752;23;880;-37
2022/04/15 00:15:07;;;;;;;;;;;;;;;;;;1288624;23;765;-38
2022/04/15 00:15:38;;;;;;;;;;;;;;;;;;1288490;23;1430;-37
2022/04/15 00:16:09;;;;;;;;;;;;;;;;;;1288556;23;813;-37
2022/04/15 00:16:43;;;;;;;;;;;;;;;;;;1288710;23;928;-37
2022/04/15 00:17:13;;;;;;;;;;;;;;;;;;1287953;23;864;-38
2022/04/15 00:17:44;;;;;;;;;;;;;;;;;;1288899;23;869;-37
2022/04/15 00:18:15;;;;;;;;;;;;;;;;;;1288340;23;1896;-37
2022/04/15 00:18:45;;;;;;;;;;;;;;;;;;1288918;23;794;-37
2022/04/15 00:19:15;;;;;;;;;;;;;;;;;;1288396;23;909;-37
2022/04/15 00:19:47;;;;;;;;;;;;;;;;;;1288792;23;968;-37
2022/04/15 00:20:17;;;;;;;;;;;;;;;;;;1288478;23;931;-37
2022/04/15 00:20:48;;;;;;;;;;;;;;;;;;1288692;23;834;-36
2022/04/15 00:21:18;;;;;;;;;;;;;;;;;;1287870;23;935;-37
2022/04/15 00:21:48;;;;;;;;;;;;;;;;;;1288539;23;746;-37
2022/04/15 00:22:19;;;;;;;;;;;;;;;;;;1287985;23;790;-37
2022/04/15 00:22:50;;;;;;;;;;;;;;;;;;1288737;23;730;-37
2022/04/15 00:23:24;;;;;;;;;;;;;;;;;;1288459;23;844;-37
2022/04/15 00:23:56;;;;;;;;;;;;;;;;;;1288636;23;968;-37
2022/04/15 00:24:27;;;;;;;;;;;;;;;;;;1288838;23;841;-37
2022/04/15 00:24:57;;;;;;;;;;;;;;;;;;1288108;23;967;-37
2022/04/15 00:25:27;;;;;;;;;;;;;;;;;;1288624;23;790;-37
2022/04/15 00:25:58;;;;;;;;;;;;;;;;;;1288895;23;920;-37
2022/04/15 00:26:28;;;;;;;;;;;;;;;;;;1288736;23;805;-38
2022/04/15 00:26:58;;;;;;;;;;;;;;;;;;1288569;23;884;-37
2022/04/15 00:27:29;;;;;;;;;;;;;;;;;;1288381;23;1129;-37
2022/04/15 00:27:59;;;;;;;;;;;;;;;;;;1288043;23;742;-37
2022/04/15 00:28:29;;;;;;;;;;;;;;;;;;1288268;23;1673;-37
2022/04/15 00:29:00;;;;;;;;;;;;;;;;;;1288247;23;853;-37
2022/04/15 00:29:31;;;;;;;;;;;;;;;;;;1288647;23;795;-37
2022/04/15 00:30:01;;;;;;;;;;;;;;;;;;1288471;23;869;-37
2022/04/15 00:30:34;;;;;;;;;;;;;;;;;;1288481;23;944;-37
2022/04/15 00:31:04;;;;;;;;;;;;;;;;;;1288910;23;971;-37
2022/04/15 00:31:35;;;;;;;;;;;;;;;;;;1288539;23;920;-37
2022/04/15 00:32:05;;;;;;;;;;;;;;;;;;1288170;23;873;-37
2022/04/15 00:32:36;;;;;;;;;;;;;;;;;;1288581;23;987;-37
2022/04/15 00:33:06;;;;;;;;;;;;;;;;;;1288616;23;782;-37
2022/04/15 00:33:36;;;;;;;;;;;;;;;;;;1288364;23;928;-37
2022/04/15 00:34:07;;;;;;;;;;;;;;;;;;1288531;23;924;-37
2022/04/15 00:34:37;;;;;;;;;;;;;;;;;;1288746;23;841;-37
2022/04/15 00:35:08;;;;;;;;;;;;;;;;;;1288547;23;949;-37
2022/04/15 00:35:39;;;;;;;;;;;;;;;;;;1288639;23;814;-37
2022/04/15 00:36:09;;;;;;;;;;;;;;;;;;1288533;23;888;-37
2022/04/15 00:36:39;;;;;;;;;;;;;;;;;;1288688;23;782;-37
2022/04/15 00:37:09;;;;;;;;;;;;;;;;;;1288492;23;896;-37
2022/04/15 00:37:40;;;;;;;;;;;;;;;;;;1288680;23;873;-37
2022/04/15 00:38:10;;;;;;;;;;;;;;;;;;1288593;23;869;-37
2022/04/15 00:38:41;;;;;;;;;;;;;;;;;;1288674;23;1946;-37
2022/04/15 00:39:13;;;;;;;;;;;;;;;;;;1288286;23;1266;-37
2022/04/15 00:39:46;;;;;;;;;;;;;;;;;;1288077;23;1587;-38
2022/04/15 00:40:16;;;;;;;;;;;;;;;;;;1288450;23;929;-37
2022/04/15 00:40:46;;;;;;;;;;;;;;;;;;1288801;23;817;-37
2022/04/15 00:41:17;;;;;;;;;;;;;;;;;;1288364;23;781;-37
2022/04/15 00:41:47;;;;;;;;;;;;;;;;;;1282144;23;1533;-37
2022/04/15 00:42:18;;;;;;;;;;;;;;;;;;1281756;23;876;-38
2022/04/15 00:42:49;;;;;;;;;;;;;;;;;;1282045;23;795;-37
2022/04/15 00:43:19;;;;;;;;;;;;;;;;;;1282203;23;900;-37
2022/04/15 00:43:52;;;;;;;;;;;;;;;;;;1288578;23;873;-37
2022/04/15 00:44:22;;;;;;;;;;;;;;;;;;1288506;23;750;-37
2022/04/15 00:44:53;;;;;;;;;;;;;;;;;;1288655;23;924;-37
2022/04/15 00:45:23;;;;;;;;;;;;;;;;;;1288731;23;868;-37
2022/04/15 00:45:54;;;;;;;;;;;;;;;;;;1288739;23;778;-37
2022/04/15 00:46:24;;;;;;;;;;;;;;;;;;1288533;23;798;-37
2022/04/15 00:46:54;;;;;;;;;;;;;;;;;;1287761;23;937;-38
2022/04/15 00:47:34;;;;;;;;;;;;;;;;;;1289029;23;869;-37
2022/04/15 00:48:11;;;;;;;;;;;;;;;;;;1288151;23;785;-38
2022/04/15 00:48:41;;;;;;;;;;;;;;;;;;1288503;23;1733;-37
2022/04/15 00:49:11;;;;;;;;;;;;;;;;;;1288820;23;534;-38
2022/04/15 00:49:42;;;;;;;;;;;;;;;;;;1281914;23;725;-37
2022/04/15 00:50:12;;;;;;;;;;;;;;;;;;1281728;23;893;-38
2022/04/15 00:50:43;;;;;;;;;;;;;;;;;;1282018;23;936;-38
2022/04/15 00:51:13;;;;;;;;;;;;;;;;;;1282049;23;798;-37
2022/04/15 00:51:43;;;;;;;;;;;;;;;;;;1288735;23;880;-37
2022/04/15 00:52:14;;;;;;;;;;;;;;;;;;1288455;23;786;-38
2022/04/15 00:52:46;;;;;;;;;;;;;;;;;;1288828;23;908;-37
2022/04/15 00:53:23;;;;;;;;;;;;;;;;;;1288491;23;849;-37
2022/04/15 00:53:54;;;;;;;;;;;;;;;;;;1288629;23;821;-37
2022/04/15 00:54:28;;;;;;;;;;;;;;;;;;1288269;23;821;-37
2022/04/15 00:55:01;;;;;;;;;;;;;;;;;;1288501;23;908;-37
2022/04/15 00:55:31;;;;;;;;;;;;;;;;;;1288681;23;892;-37
2022/04/15 00:56:03;;;;;;;;;;;;;;;;;;1288320;23;829;-37
2022/04/15 00:56:36;;;;;;;;;;;;;;;;;;1288626;23;801;-37
2022/04/15 00:57:09;;;;;;;;;;;;;;;;;;1288530;23;1055;-38
2022/04/15 00:57:40;;;;;;;;;;;;;;;;;;1288676;23;1043;-38
2022/04/15 00:58:13;;;;;;;;;;;;;;;;;;1288596;23;912;-38
2022/04/15 00:58:45;;;;;;;;;;;;;;;;;;1288922;23;916;-38
2022/04/15 00:59:16;;;;;;;;;;;;;;;;;;1288666;23;770;-38
2022/04/15 00:59:46;;;;;;;;;;;;;;;;;;1289064;23;825;-38
2022/04/15 01:00:17;;;;;;;;;;;;;;;;;;1288708;23;943;-37
2022/04/15 01:00:51;;;;;;;;;;;;;;;;;;1288768;23;1611;-37
2022/04/15 01:01:21;;;;;;;;;;;;;;;;;;1288604;23;909;-37
2022/04/15 01:01:52;;;;;;;;;;;;;;;;;;1288393;23;983;-37
2022/04/15 01:02:24;;;;;;;;;;;;;;;;;;1288564;23;766;-38
2022/04/15 01:03:04;;;;;;;;;;;;;;;;;;1288572;23;921;-38
2022/04/15 01:03:36;;;;;;;;;;;;;;;;;;1288757;23;1118;-37
2022/04/15 01:04:07;;;;;;;;;;;;;;;;;;1288318;23;921;-38
2022/04/15 01:04:40;;;;;;;;;;;;;;;;;;1289017;23;958;-38
2022/04/15 01:05:13;;;;;;;;;;;;;;;;;;1288420;23;805;-38
2022/04/15 01:05:45;;;;;;;;;;;;;;;;;;1288933;23;1007;-37
2022/04/15 01:06:17;;;;;;;;;;;;;;;;;;1288474;23;873;-38
2022/04/15 01:06:47;;;;;;;;;;;;;;;;;;1288681;23;1003;-37
2022/04/15 01:07:19;;;;;;;;;;;;;;;;;;1288747;23;746;-37
2022/04/15 01:07:50;;;;;;;;;;;;;;;;;;1288705;23;789;-37
2022/04/15 01:08:22;;;;;;;;;;;;;;;;;;1288805;23;829;-37
2022/04/15 01:08:53;;;;;;;;;;;;;;;;;;1288726;23;991;-37
2022/04/15 01:09:25;;;;;;;;;;;;;;;;;;1288349;23;999;-37
2022/04/15 01:09:55;;;;;;;;;;;;;;;;;;1288799;23;794;-37
2022/04/15 01:10:26;;;;;;;;;;;;;;;;;;1288569;23;920;-37
2022/04/15 01:10:58;;;;;;;;;;;;;;;;;;1288726;23;802;-38
2022/04/15 01:11:30;;;;;;;;;;;;;;;;;;1288558;22;1282;-38
2022/04/15 01:12:02;;;;;;;;;;;;;;;;;;1288545;23;742;-38
2022/04/15 01:12:36;;;;;;;;;;;;;;;;;;1288679;23;766;-37
2022/04/15 01:13:06;;;;;;;;;;;;;;;;;;1288388;23;774;-38
2022/04/15 01:13:38;;;;;;;;;;;;;;;;;;1286642;23;1178;-38
2022/04/15 01:14:10;;;;;;;;;;;;;;;;;;1288527;23;881;-37
2022/04/15 01:14:42;;;;;;;;;;;;;;;;;;1288787;23;972;-38
2022/04/15 01:15:16;;;;;;;;;;;;;;;;;;1288867;23;786;-37
2022/04/15 01:15:46;;;;;;;;;;;;;;;;;;1288823;23;853;-37
2022/04/15 01:16:18;;;;;;;;;;;;;;;;;;1288433;23;961;-38
2022/04/15 01:16:48;;;;;;;;;;;;;;;;;;1288567;23;901;-37
2022/04/15 01:17:19;;;;;;;;;;;;;;;;;;1288671;23;805;-37
2022/04/15 01:17:49;;;;;;;;;;;;;;;;;;1288915;23;782;-38
2022/04/15 01:18:19;;;;;;;;;;;;;;;;;;1288383;23;1938;-38
2022/04/15 01:18:50;;;;;;;;;;;;;;;;;;1288814;23;1230;-37
2022/04/15 01:19:20;;;;;;;;;;;;;;;;;;1288779;23;770;-37
2022/04/15 01:19:51;;;;;;;;;;;;;;;;;;1288771;23;817;-38
2022/04/15 01:20:21;;;;;;;;;;;;;;;;;;1288704;23;860;-38
2022/04/15 01:20:52;;;;;;;;;;;;;;;;;;1288861;23;944;-37
2022/04/15 01:21:24;;;;;;;;;;;;;;;;;;1289117;23;857;-38
2022/04/15 01:21:55;;;;;;;;;;;;;;;;;;1287448;23;924;-37
2022/04/15 01:22:28;;;;;;;;;;;;;;;;;;1289126;23;893;-38
2022/04/15 01:23:03;;;;;;;;;;;;;;;;;;1289045;23;829;-38
2022/04/15 01:23:33;;;;;;;;;;;;;;;;;;1288860;23;888;-37
2022/04/15 01:24:04;;;;;;;;;;;;;;;;;;1289811;23;842;-38
2022/04/15 01:24:38;;;;;;;;;;;;;;;;;;1294321;23;884;-37
2022/04/15 01:25:10;;;;;;;;;;;;;;;;;;1294043;23;987;-37
2022/04/15 01:25:41;;;;;;;;;;;;;;;;;;1294117;23;960;-37
2022/04/15 01:26:11;;;;;;;;;;;;;;;;;;1292206;23;877;-37
2022/04/15 01:26:41;;;;;;;;;;;;;;;;;;1288973;23;828;-38
2022/04/15 01:27:21;;;;;;;;;;;;;;;;;;1288960;23;845;-37
2022/04/15 01:27:51;;;;;;;;;;;;;;;;;;1288790;23;909;-37
2022/04/15 01:28:21;;;;;;;;;;;;;;;;;;1288665;23;838;-37
2022/04/15 01:28:55;;;;;;;;;;;;;;;;;;1288263;23;790;-38
2022/04/15 01:29:26;;;;;;;;;;;;;;;;;;1288081;23;841;-37
2022/04/15 01:29:56;;;;;;;;;;;;;;;;;;1288018;23;925;-37
2022/04/15 01:30:27;;;;;;;;;;;;;;;;;;1288258;23;900;-37
2022/04/15 01:31:00;;;;;;;;;;;;;;;;;;1288381;23;856;-38
2022/04/15 01:31:31;;;;;;;;;;;;;;;;;;1288367;23;766;-37
2022/04/15 01:32:03;;;;;;;;;;;;;;;;;;1288339;23;841;-37
2022/04/15 01:32:34;;;;;;;;;;;;;;;;;;1288570;23;810;-38
2022/04/15 01:33:04;;;;;;;;;;;;;;;;;;1288254;23;896;-38
2022/04/15 01:33:34;;;;;;;;;;;;;;;;;;1288535;23;917;-37
2022/04/15 01:34:05;;;;;;;;;;;;;;;;;;1288366;23;948;-37
2022/04/15 01:34:35;;;;;;;;;;;;;;;;;;1288795;23;809;-37
2022/04/15 01:35:06;;;;;;;;;;;;;;;;;;1288292;23;889;-37
2022/04/15 01:35:36;;;;;;;;;;;;;;;;;;1288661;23;1146;-37
2022/04/15 01:36:07;;;;;;;;;;;;;;;;;;1288244;23;917;-37
2022/04/15 01:36:37;;;;;;;;;;;;;;;;;;1288848;23;956;-37
2022/04/15 01:37:07;;;;;;;;;;;;;;;;;;1288222;23;818;-37
2022/04/15 01:37:38;;;;;;;;;;;;;;;;;;1288774;23;794;-37
2022/04/15 01:38:14;;;;;;;;;;;;;;;;;;1288322;23;866;-37
2022/04/15 01:38:45;;;;;;;;;;;;;;;;;;1288397;23;583;-37
2022/04/15 01:39:15;;;;;;;;;;;;;;;;;;1288516;23;1013;-37
2022/04/15 01:39:46;;;;;;;;;;;;;;;;;;1288046;23;1317;-37
2022/04/15 01:40:17;;;;;;;;;;;;;;;;;;1287900;23;845;-37
2022/04/15 01:40:48;;;;;;;;;;;;;;;;;;1288224;23;881;-37
2022/04/15 01:41:27;;;;;;;;;;;;;;;;;;1288011;23;874;-38
2022/04/15 01:41:57;;;;;;;;;;;;;;;;;;1288372;23;802;-37
2022/04/15 01:42:28;;;;;;;;;;;;;;;;;;1288624;23;947;-37
2022/04/15 01:42:58;;;;;;;;;;;;;;;;;;1288464;23;896;-37
2022/04/15 01:43:28;;;;;;;;;;;;;;;;;;1288605;23;821;-37
2022/04/15 01:43:59;;;;;;;;;;;;;;;;;;1288514;23;778;-37
2022/04/15 01:44:29;;;;;;;;;;;;;;;;;;1288750;23;972;-37
2022/04/15 01:45:00;;;;;;;;;;;;;;;;;;1288300;23;908;-37
2022/04/15 01:45:30;;;;;;;;;;;;;;;;;;1288271;23;865;-37
2022/04/15 01:46:00;;;;;;;;;;;;;;;;;;1287964;23;956;-37
2022/04/15 01:46:31;;;;;;;;;;;;;;;;;;1282020;23;856;-37
2022/04/15 01:47:01;;;;;;;;;;;;;;;;;;1281560;23;1126;-37
2022/04/15 01:47:31;;;;;;;;;;;;;;;;;;1282232;23;785;-38
2022/04/15 01:48:02;;;;;;;;;;;;;;;;;;1281692;23;821;-37
2022/04/15 01:48:32;;;;;;;;;;;;;;;;;;1288051;23;966;-37
2022/04/15 01:49:03;;;;;;;;;;;;;;;;;;1288419;23;829;-37
2022/04/15 01:49:33;;;;;;;;;;;;;;;;;;1288593;23;797;-38
2022/04/15 01:50:04;;;;;;;;;;;;;;;;;;1287599;23;1240;-37
2022/04/15 01:50:35;;;;;;;;;;;;;;;;;;1288784;23;840;-37
2022/04/15 01:51:05;;;;;;;;;;;;;;;;;;1288130;23;924;-38
2022/04/15 01:51:36;;;;;;;;;;;;;;;;;;1288875;23;785;-38
2022/04/15 01:52:06;;;;;;;;;;;;;;;;;;1288216;23;912;-38
2022/04/15 01:52:37;;;;;;;;;;;;;;;;;;1288677;23;762;-38
2022/04/15 01:53:07;;;;;;;;;;;;;;;;;;1288603;23;778;-38
2022/04/15 01:53:37;;;;;;;;;;;;;;;;;;1288274;23;801;-37
2022/04/15 01:54:08;;;;;;;;;;;;;;;;;;1288490;23;857;-37
2022/04/15 01:54:38;;;;;;;;;;;;;;;;;;1288975;23;805;-37
2022/04/15 01:55:08;;;;;;;;;;;;;;;;;;1288211;23;901;-38
2022/04/15 01:55:39;;;;;;;;;;;;;;;;;;1288908;23;820;-38
2022/04/15 01:56:09;;;;;;;;;;;;;;;;;;1288418;23;956;-38
2022/04/15 01:56:39;;;;;;;;;;;;;;;;;;1288560;23;853;-37
2022/04/15 01:57:11;;;;;;;;;;;;;;;;;;1288505;23;939;-37
2022/04/15 01:57:42;;;;;;;;;;;;;;;;;;1288711;23;863;-37
2022/04/15 01:58:12;;;;;;;;;;;;;;;;;;1287802;23;1090;-37
2022/04/15 01:58:42;;;;;;;;;;;;;;;;;;1288203;23;1940;-37
2022/04/15 01:59:12;;;;;;;;;;;;;;;;;;1287774;23;741;-37
2022/04/15 01:59:43;;;;;;;;;;;;;;;;;;1288444;23;916;-37
2022/04/15 02:00:13;;;;;;;;;;;;;;;;;;1288050;23;884;-37
2022/04/15 02:00:43;;;;;;;;;;;;;;;;;;1288654;23;865;-37
2022/04/15 02:01:14;;;;;;;;;;;;;;;;;;1288097;23;821;-38
2022/04/15 02:01:44;;;;;;;;;;;;;;;;;;1288453;23;877;-37
2022/04/15 02:02:14;;;;;;;;;;;;;;;;;;1288378;23;754;-37
2022/04/15 02:02:45;;;;;;;;;;;;;;;;;;1288590;23;845;-37
2022/04/15 02:03:15;;;;;;;;;;;;;;;;;;1288422;23;912;-37
2022/04/15 02:03:45;;;;;;;;;;;;;;;;;;1288697;23;900;-37
2022/04/15 02:04:16;;;;;;;;;;;;;;;;;;1287238;23;1198;-37
2022/04/15 02:04:46;;;;;;;;;;;;;;;;;;1288677;23;797;-37
2022/04/15 02:05:17;;;;;;;;;;;;;;;;;;1288476;23;873;-37
2022/04/15 02:05:47;;;;;;;;;;;;;;;;;;1288409;23;809;-37
2022/04/15 02:06:17;;;;;;;;;;;;;;;;;;1288339;23;927;-37
2022/04/15 02:06:48;;;;;;;;;;;;;;;;;;1288575;23;806;-38
2022/04/15 02:07:18;;;;;;;;;;;;;;;;;;1288311;23;956;-37
2022/04/15 02:07:48;;;;;;;;;;;;;;;;;;1288653;23;759;-37
2022/04/15 02:08:21;;;;;;;;;;;;;;;;;;1287670;23;947;-38
2022/04/15 02:08:55;;;;;;;;;;;;;;;;;;1288587;23;840;-37
2022/04/15 02:09:25;;;;;;;;;;;;;;;;;;1281644;23;913;-37
2022/04/15 02:09:58;;;;;;;;;;;;;;;;;;1281903;23;774;-38
2022/04/15 02:10:32;;;;;;;;;;;;;;;;;;1281801;23;853;-37
2022/04/15 02:11:02;;;;;;;;;;;;;;;;;;1283196;23;900;-37
2022/04/15 02:11:34;;;;;;;;;;;;;;;;;;1288484;22;1266;-38
2022/04/15 02:12:04;;;;;;;;;;;;;;;;;;1288431;23;1120;-37
2022/04/15 02:12:35;;;;;;;;;;;;;;;;;;1288762;23;836;-37
2022/04/15 02:13:05;;;;;;;;;;;;;;;;;;1288327;23;802;-37
2022/04/15 02:13:35;;;;;;;;;;;;;;;;;;1288622;23;805;-37
2022/04/15 02:14:06;;;;;;;;;;;;;;;;;;1288419;23;881;-38
2022/04/15 02:14:37;;;;;;;;;;;;;;;;;;1288647;23;897;-38
2022/04/15 02:15:07;;;;;;;;;;;;;;;;;;1288202;23;758;-38
2022/04/15 02:15:38;;;;;;;;;;;;;;;;;;1288119;23;865;-38
2022/04/15 02:16:14;;;;;;;;;;;;;;;;;;1288361;23;513;-37
2022/04/15 02:16:44;;;;;;;;;;;;;;;;;;1288622;23;875;-37
2022/04/15 02:17:15;;;;;;;;;;;;;;;;;;1288356;23;908;-37
2022/04/15 02:17:45;;;;;;;;;;;;;;;;;;1288554;23;781;-37
2022/04/15 02:18:15;;;;;;;;;;;;;;;;;;1288287;23;1924;-37
2022/04/15 02:18:46;;;;;;;;;;;;;;;;;;1281928;23;940;-37
2022/04/15 02:19:17;;;;;;;;;;;;;;;;;;1281251;23;901;-37
2022/04/15 02:19:48;;;;;;;;;;;;;;;;;;1281939;23;888;-37
2022/04/15 02:20:18;;;;;;;;;;;;;;;;;;1281948;23;877;-37
2022/04/15 02:20:48;;;;;;;;;;;;;;;;;;1288597;23;861;-37
2022/04/15 02:21:18;;;;;;;;;;;;;;;;;;1288783;23;845;-37
2022/04/15 02:21:49;;;;;;;;;;;;;;;;;;1288368;23;809;-38
2022/04/15 02:22:19;;;;;;;;;;;;;;;;;;1288375;23;864;-37
2022/04/15 02:22:52;;;;;;;;;;;;;;;;;;1288374;23;937;-37
2022/04/15 02:23:22;;;;;;;;;;;;;;;;;;1286493;23;932;-37
2022/04/15 02:23:52;;;;;;;;;;;;;;;;;;1288639;23;813;-37
2022/04/15 02:24:23;;;;;;;;;;;;;;;;;;1288102;23;924;-38
2022/04/15 02:24:53;;;;;;;;;;;;;;;;;;1288596;23;966;-37
2022/04/15 02:25:23;;;;;;;;;;;;;;;;;;1288391;23;853;-37
2022/04/15 02:25:54;;;;;;;;;;;;;;;;;;1288595;23;821;-37
2022/04/15 02:26:24;;;;;;;;;;;;;;;;;;1288295;23;809;-37
2022/04/15 02:26:54;;;;;;;;;;;;;;;;;;1288389;23;939;-37
2022/04/15 02:27:25;;;;;;;;;;;;;;;;;;1288537;23;541;-37
2022/04/15 02:27:55;;;;;;;;;;;;;;;;;;1288402;23;996;-37
2022/04/15 02:28:25;;;;;;;;;;;;;;;;;;1288265;23;794;-37
2022/04/15 02:28:56;;;;;;;;;;;;;;;;;;1288684;23;881;-36
2022/04/15 02:29:27;;;;;;;;;;;;;;;;;;1287931;23;1180;-37
2022/04/15 02:30:00;;;;;;;;;;;;;;;;;;1288564;23;829;-37
2022/04/15 02:30:30;;;;;;;;;;;;;;;;;;1288182;23;1023;-36
2022/04/15 02:31:00;;;;;;;;;;;;;;;;;;1288325;23;901;-36
2022/04/15 02:31:31;;;;;;;;;;;;;;;;;;1288780;23;896;-37
2022/04/15 02:32:01;;;;;;;;;;;;;;;;;;1288280;23;940;-37
2022/04/15 02:32:31;;;;;;;;;;;;;;;;;;1288444;23;948;-37
2022/04/15 02:33:02;;;;;;;;;;;;;;;;;;1288649;23;817;-37
2022/04/15 02:33:32;;;;;;;;;;;;;;;;;;1288483;23;1114;-37
2022/04/15 02:34:02;;;;;;;;;;;;;;;;;;1288477;23;916;-37
2022/04/15 02:34:33;;;;;;;;;;;;;;;;;;1288657;23;825;-37
2022/04/15 02:35:03;;;;;;;;;;;;;;;;;;1288579;23;939;-37
2022/04/15 02:35:34;;;;;;;;;;;;;;;;;;1288754;23;924;-37
2022/04/15 02:36:04;;;;;;;;;;;;;;;;;;1288364;23;955;-37
2022/04/15 02:36:37;;;;;;;;;;;;;;;;;;1288870;23;877;-37
2022/04/15 02:37:07;;;;;;;;;;;;;;;;;;1288507;23;971;-37
2022/04/15 02:37:41;;;;;;;;;;;;;;;;;;1288699;23;1130;-37
2022/04/15 02:38:12;;;;;;;;;;;;;;;;;;1288022;23;933;-37
2022/04/15 02:38:42;;;;;;;;;;;;;;;;;;1288622;23;1932;-37
2022/04/15 02:39:12;;;;;;;;;;;;;;;;;;1288460;23;1222;-37
2022/04/15 02:39:43;;;;;;;;;;;;;;;;;;1288602;23;813;-37
2022/04/15 02:40:13;;;;;;;;;;;;;;;;;;1288384;23;794;-38
2022/04/15 02:40:46;;;;;;;;;;;;;;;;;;1288630;23;836;-37
2022/04/15 02:41:22;;;;;;;;;;;;;;;;;;1288448;23;895;-37
2022/04/15 02:41:55;;;;;;;;;;;;;;;;;;1288784;23;762;-38
2022/04/15 02:42:28;;;;;;;;;;;;;;;;;;1288542;23;857;-38
2022/04/15 02:43:01;;;;;;;;;;;;;;;;;;1288626;23;869;-38
2022/04/15 02:43:32;;;;;;;;;;;;;;;;;;1288623;23;937;-38
2022/04/15 02:44:03;;;;;;;;;;;;;;;;;;1288238;23;972;-37
2022/04/15 02:44:33;;;;;;;;;;;;;;;;;;1288734;23;920;-37
2022/04/15 02:45:04;;;;;;;;;;;;;;;;;;1288508;23;948;-38
2022/04/15 02:45:34;;;;;;;;;;;;;;;;;;1288160;23;913;-38
2022/04/15 02:46:06;;;;;;;;;;;;;;;;;;1281564;23;624;-38
2022/04/15 02:46:36;;;;;;;;;;;;;;;;;;1281998;23;809;-38
2022/04/15 02:47:07;;;;;;;;;;;;;;;;;;1281744;23;917;-38
2022/04/15 02:47:38;;;;;;;;;;;;;;;;;;1282753;23;818;-38
2022/04/15 02:48:09;;;;;;;;;;;;;;;;;;1288152;23;1031;-38
2022/04/15 02:48:39;;;;;;;;;;;;;;;;;;1282181;23;1144;-37
2022/04/15 02:49:11;;;;;;;;;;;;;;;;;;1281849;23;913;-38
2022/04/15 02:49:44;;;;;;;;;;;;;;;;;;1282026;23;996;-37
2022/04/15 02:50:15;;;;;;;;;;;;;;;;;;1280255;23;1031;-37
2022/04/15 02:50:45;;;;;;;;;;;;;;;;;;1288562;23;805;-38
2022/04/15 02:51:17;;;;;;;;;;;;;;;;;;1288643;23;885;-37
2022/04/15 02:51:48;;;;;;;;;;;;;;;;;;1288553;23;805;-37
2022/04/15 02:52:18;;;;;;;;;;;;;;;;;;1288443;23;790;-37
2022/04/15 02:52:49;;;;;;;;;;;;;;;;;;1288384;23;885;-37
2022/04/15 02:53:20;;;;;;;;;;;;;;;;;;1288470;23;904;-37
2022/04/15 02:53:51;;;;;;;;;;;;;;;;;;1288797;23;790;-37
2022/04/15 02:54:21;;;;;;;;;;;;;;;;;;1288551;23;928;-38
2022/04/15 02:54:51;;;;;;;;;;;;;;;;;;1288781;23;762;-37
2022/04/15 02:55:22;;;;;;;;;;;;;;;;;;1288602;23;1020;-37
2022/04/15 02:55:52;;;;;;;;;;;;;;;;;;1288774;23;908;-37
2022/04/15 02:56:23;;;;;;;;;;;;;;;;;;1288847;23;964;-37
2022/04/15 02:56:53;;;;;;;;;;;;;;;;;;1289099;23;1042;-37
2022/04/15 02:57:23;;;;;;;;;;;;;;;;;;1289159;23;779;-37
2022/04/15 02:57:53;;;;;;;;;;;;;;;;;;1289882;23;982;-37
2022/04/15 02:58:26;;;;;;;;;;;;;;;;;;1289002;23;1889;-36
2022/04/15 02:58:57;;;;;;;;;;;;;;;;;;1289710;23;928;-37
2022/04/15 02:59:27;;;;;;;;;;;;;;;;;;1294342;23;849;-36
2022/04/15 02:59:58;;;;;;;;;;;;;;;;;;1294194;23;960;-36
2022/04/15 03:00:29;;;;;;;;;;;;;;;;;;1293939;23;925;-37
2022/04/15 03:01:00;;;;;;;;;;;;;;;;;;1293803;23;964;-36
2022/04/15 03:01:31;;;;;;;;;;;;;;;;;;1290127;23;960;-37
2022/04/15 03:02:01;;;;;;;;;;;;;;;;;;1289133;23;766;-37
2022/04/15 03:02:34;;;;;;;;;;;;;;;;;;1289253;23;904;-37
2022/04/15 03:03:05;;;;;;;;;;;;;;;;;;1288949;23;1062;-36
2022/04/15 03:03:35;;;;;;;;;;;;;;;;;;1282069;23;1041;-37
2022/04/15 03:04:05;;;;;;;;;;;;;;;;;;1282009;23;925;-37
2022/04/15 03:04:35;;;;;;;;;;;;;;;;;;1282308;23;789;-38
2022/04/15 03:05:09;;;;;;;;;;;;;;;;;;1282152;23;802;-37
2022/04/15 03:05:39;;;;;;;;;;;;;;;;;;1288138;23;1188;-37
2022/04/15 03:06:09;;;;;;;;;;;;;;;;;;1289015;23;983;-37
2022/04/15 03:06:40;;;;;;;;;;;;;;;;;;1288831;23;889;-37
2022/04/15 03:07:10;;;;;;;;;;;;;;;;;;1287754;23;1220;-37
2022/04/15 03:07:40;;;;;;;;;;;;;;;;;;1288318;23;822;-37
2022/04/15 03:08:11;;;;;;;;;;;;;;;;;;1288777;23;881;-37
2022/04/15 03:08:44;;;;;;;;;;;;;;;;;;1288881;23;786;-37
2022/04/15 03:09:14;;;;;;;;;;;;;;;;;;1288413;23;889;-37
2022/04/15 03:09:45;;;;;;;;;;;;;;;;;;1288351;23;893;-37
2022/04/15 03:10:18;;;;;;;;;;;;;;;;;;1288303;23;936;-37
2022/04/15 03:10:48;;;;;;;;;;;;;;;;;;1288390;23;913;-37
2022/04/15 03:11:18;;;;;;;;;;;;;;;;;;1288707;22;1669;-37
2022/04/15 03:11:49;;;;;;;;;;;;;;;;;;1288812;23;857;-37
2022/04/15 03:12:19;;;;;;;;;;;;;;;;;;1288745;23;774;-37
2022/04/15 03:12:49;;;;;;;;;;;;;;;;;;1289007;23;809;-36
2022/04/15 03:13:20;;;;;;;;;;;;;;;;;;1288772;23;806;-36
2022/04/15 03:13:50;;;;;;;;;;;;;;;;;;1288930;23;900;-36
2022/04/15 03:14:20;;;;;;;;;;;;;;;;;;1288910;23;1623;-36
2022/04/15 03:14:51;;;;;;;;;;;;;;;;;;1288187;23;1087;-37
2022/04/15 03:15:21;;;;;;;;;;;;;;;;;;1288618;23;892;-36
2022/04/15 03:15:51;;;;;;;;;;;;;;;;;;1288297;23;912;-37
2022/04/15 03:16:22;;;;;;;;;;;;;;;;;;1288565;23;860;-37
2022/04/15 03:16:52;;;;;;;;;;;;;;;;;;1288795;23;947;-36
2022/04/15 03:17:25;;;;;;;;;;;;;;;;;;1288721;23;802;-37
2022/04/15 03:17:55;;;;;;;;;;;;;;;;;;1288719;23;905;-36
2022/04/15 03:18:26;;;;;;;;;;;;;;;;;;1288903;23;1954;-37
2022/04/15 03:18:56;;;;;;;;;;;;;;;;;;1288528;23;877;-37
2022/04/15 03:19:26;;;;;;;;;;;;;;;;;;1289055;23;945;-37
2022/04/15 03:19:57;;;;;;;;;;;;;;;;;;1288518;23;802;-37
2022/04/15 03:20:28;;;;;;;;;;;;;;;;;;1289211;23;937;-37
2022/04/15 03:20:58;;;;;;;;;;;;;;;;;;1288688;23;892;-38
2022/04/15 03:21:29;;;;;;;;;;;;;;;;;;1289038;23;944;-37
2022/04/15 03:22:00;;;;;;;;;;;;;;;;;;1288747;23;833;-37
2022/04/15 03:22:34;;;;;;;;;;;;;;;;;;1288457;23;920;-37
2022/04/15 03:23:05;;;;;;;;;;;;;;;;;;1288750;23;798;-37
2022/04/15 03:23:35;;;;;;;;;;;;;;;;;;1289102;23;1062;-37
2022/04/15 03:24:06;;;;;;;;;;;;;;;;;;1288568;23;900;-37
2022/04/15 03:24:36;;;;;;;;;;;;;;;;;;1289113;23;968;-37
2022/04/15 03:25:07;;;;;;;;;;;;;;;;;;1288903;23;964;-37
2022/04/15 03:25:38;;;;;;;;;;;;;;;;;;1289271;23;881;-36
2022/04/15 03:26:08;;;;;;;;;;;;;;;;;;1288759;23;917;-37
2022/04/15 03:26:38;;;;;;;;;;;;;;;;;;1289014;23;1145;-37
2022/04/15 03:27:10;;;;;;;;;;;;;;;;;;1289138;23;912;-37
2022/04/15 03:27:41;;;;;;;;;;;;;;;;;;1289084;23;885;-36
2022/04/15 03:28:11;;;;;;;;;;;;;;;;;;1288595;23;1585;-36
2022/04/15 03:28:41;;;;;;;;;;;;;;;;;;1289081;23;948;-37
2022/04/15 03:29:12;;;;;;;;;;;;;;;;;;1288411;23;1030;-36
2022/04/15 03:29:43;;;;;;;;;;;;;;;;;;1288574;23;814;-37
2022/04/15 03:30:14;;;;;;;;;;;;;;;;;;1288579;23;927;-37
2022/04/15 03:30:44;;;;;;;;;;;;;;;;;;1288998;23;901;-36
2022/04/15 03:31:15;;;;;;;;;;;;;;;;;;1288765;23;810;-36
2022/04/15 03:31:45;;;;;;;;;;;;;;;;;;1288718;23;877;-36
2022/04/15 03:32:15;;;;;;;;;;;;;;;;;;1288729;23;790;-37
2022/04/15 03:32:49;;;;;;;;;;;;;;;;;;1288838;23;876;-36
2022/04/15 03:33:19;;;;;;;;;;;;;;;;;;1288801;23;813;-37
2022/04/15 03:33:50;;;;;;;;;;;;;;;;;;1288927;23;1071;-37
2022/04/15 03:34:20;;;;;;;;;;;;;;;;;;1288530;23;1096;-36
2022/04/15 03:34:54;;;;;;;;;;;;;;;;;;1288746;23;932;-36
2022/04/15 03:35:24;;;;;;;;;;;;;;;;;;1288580;23;913;-37
2022/04/15 03:35:54;;;;;;;;;;;;;;;;;;1288578;23;952;-36
2022/04/15 03:36:25;;;;;;;;;;;;;;;;;;1288733;23;985;-37
2022/04/15 03:36:55;;;;;;;;;;;;;;;;;;1288634;23;790;-37
2022/04/15 03:37:25;;;;;;;;;;;;;;;;;;1288406;23;941;-37
2022/04/15 03:37:58;;;;;;;;;;;;;;;;;;1288592;23;909;-36
2022/04/15 03:38:28;;;;;;;;;;;;;;;;;;1288647;23;1896;-37
2022/04/15 03:38:59;;;;;;;;;;;;;;;;;;1288681;23;1148;-37
2022/04/15 03:39:29;;;;;;;;;;;;;;;;;;1288712;23;900;-38